createdAt,value
2019-05-03T00:05:13.898Z,9.10
2019-05-03T00:07:31.745Z,9.20
2019-05-03T00:13:36.131Z,9.20
2019-05-03T00:20:15.102Z,9.20
2019-05-03T00:23:04.058Z,9.20
2019-05-03T00:26:24.365Z,9.20
2019-05-03T00:38:49.119Z,9.10
2019-05-03T00:41:12.062Z,9.10
2019-05-03T00:43:54.719Z,9.00
2019-05-03T00:46:43.261Z,9.00
2019-05-03T00:49:17.703Z,9.00
2019-05-03T00:51:28.185Z,9.00
2019-05-03T00:53:47.499Z,9.00
2019-05-03T00:55:57.738Z,9.00
2019-05-03T00:58:03.738Z,9.00
2019-05-03T01:00:13.580Z,9.00
2019-05-03T01:02:33.787Z,9.00
2019-05-03T01:04:42.670Z,9.00
2019-05-03T01:06:50.040Z,9.00
2019-05-03T01:09:02.539Z,9.00
2019-05-03T01:11:22.263Z,9.00
2019-05-03T01:13:40.218Z,9.00
2019-05-03T01:16:14.438Z,9.00
2019-05-03T01:18:35.651Z,9.00
2019-05-03T01:20:40.078Z,9.00
2019-05-03T01:22:47.372Z,9.00
2019-05-03T01:24:56.693Z,9.00
2019-05-03T01:27:05.800Z,8.90
2019-05-03T01:29:16.346Z,8.90
2019-05-03T01:31:39.489Z,8.90
2019-05-03T01:33:42.497Z,8.90
2019-05-03T01:35:51.905Z,8.80
2019-05-03T01:38:02.051Z,8.80
2019-05-03T01:40:25.515Z,8.80
2019-05-03T01:42:51.759Z,8.80
2019-05-03T01:45:17.917Z,8.80
2019-05-03T01:47:56.344Z,8.70
2019-05-03T01:50:35.106Z,8.70
2019-05-03T01:52:56.991Z,8.70
2019-05-03T01:55:05.964Z,8.70
2019-05-03T01:57:32.491Z,8.70
2019-05-03T01:59:44.088Z,8.70
2019-05-03T02:02:07.512Z,8.70
2019-05-03T02:04:39.037Z,8.60
2019-05-03T02:06:51.928Z,8.60
2019-05-03T02:09:02.089Z,8.60
2019-05-03T02:11:11.572Z,8.60
2019-05-03T02:13:15.505Z,8.60
2019-05-03T02:15:33.625Z,8.60
2019-05-03T02:17:37.927Z,8.60
2019-05-03T02:19:46.727Z,8.50
2019-05-03T02:21:59.855Z,8.50
2019-05-03T02:24:07.252Z,8.50
2019-05-03T02:26:14.578Z,8.50
2019-05-03T02:28:22.072Z,8.50
2019-05-03T02:30:36.415Z,8.50
2019-05-03T02:32:46.819Z,8.50
2019-05-03T02:34:56.755Z,8.50
2019-05-03T02:37:07.534Z,8.60
2019-05-03T02:39:18.975Z,8.60
2019-05-03T02:41:26.057Z,8.60
2019-05-03T02:43:37.911Z,8.50
2019-05-03T02:46:00.797Z,8.50
2019-05-03T02:48:29.206Z,8.60
2019-05-03T02:50:37.471Z,8.60
2019-05-03T02:52:41.835Z,8.60
2019-05-03T02:54:48.525Z,8.60
2019-05-03T02:57:06.436Z,8.60
2019-05-03T02:59:15.726Z,8.60
2019-05-03T03:01:28.082Z,8.50
2019-05-03T03:03:57.520Z,8.50
2019-05-03T03:06:46.590Z,8.50
2019-05-03T03:08:38.886Z,8.50
2019-05-03T03:10:48.607Z,8.50
2019-05-03T03:13:13.097Z,8.60
2019-05-03T03:15:19.784Z,8.60
2019-05-03T03:17:27.013Z,8.60
2019-05-03T03:19:36.970Z,8.50
2019-05-03T03:21:47.682Z,8.50
2019-05-03T03:24:06.808Z,8.50
2019-05-03T03:26:36.274Z,8.50
2019-05-03T03:28:39.038Z,8.40
2019-05-03T03:31:37.839Z,8.40
2019-05-03T03:33:48.168Z,8.40
2019-05-03T03:36:29.445Z,8.40
2019-05-03T03:38:15.439Z,8.40
2019-05-03T03:40:19.884Z,8.30
2019-05-03T03:42:52.330Z,8.40
2019-05-03T03:45:25.360Z,8.30
2019-05-03T03:47:46.612Z,8.30
2019-05-03T03:50:07.883Z,8.40
2019-05-03T03:52:20.494Z,8.30
2019-05-03T03:54:45.730Z,8.30
2019-05-03T03:57:07.907Z,8.30
2019-05-03T03:59:17.749Z,8.20
2019-05-03T04:01:37.279Z,8.20
2019-05-03T04:03:45.965Z,8.20
2019-05-03T04:05:55.896Z,8.20
2019-05-03T04:08:25.044Z,8.20
2019-05-03T04:10:32.060Z,8.20
2019-05-03T04:12:45.268Z,8.20
2019-05-03T04:14:59.058Z,8.20
2019-05-03T04:17:22.548Z,8.20
2019-05-03T04:19:32.221Z,8.30
2019-05-03T04:21:51.103Z,8.20
2019-05-03T04:24:02.613Z,8.30
2019-05-03T04:27:24.417Z,8.20
2019-05-03T04:30:05.913Z,8.20
2019-05-03T04:32:42.130Z,8.20
2019-05-03T04:35:01.256Z,8.30
2019-05-03T04:37:28.180Z,8.30
2019-05-03T04:40:20.162Z,8.40
2019-05-03T04:42:27.328Z,8.40
2019-05-03T04:48:16.059Z,8.50
2019-05-03T04:50:36.628Z,8.50
2019-05-03T04:53:22.271Z,8.50
2019-05-03T04:55:36.868Z,8.60
2019-05-03T04:57:56.227Z,8.70
2019-05-03T05:00:11.448Z,9.00
2019-05-03T05:02:40.789Z,10.50
2019-05-03T05:04:55.636Z,10.70
2019-05-03T05:07:10.613Z,10.90
2019-05-03T05:09:25.882Z,10.80
2019-05-03T05:11:35.072Z,10.80
2019-05-03T05:13:42.359Z,10.70
2019-05-03T05:15:49.796Z,10.50
2019-05-03T05:18:05.804Z,10.40
2019-05-03T05:20:27.168Z,10.40
2019-05-03T05:22:49.503Z,10.30
2019-05-03T05:24:55.188Z,10.30
2019-05-03T05:27:05.959Z,11.00
2019-05-03T05:29:11.525Z,11.60
2019-05-03T05:31:15.438Z,12.00
2019-05-03T05:33:22.210Z,12.10
2019-05-03T05:35:28.496Z,12.40
2019-05-03T05:37:31.844Z,12.50
2019-05-03T05:39:55.044Z,12.70
2019-05-03T05:42:00.986Z,12.70
2019-05-03T05:46:09.700Z,12.70
2019-05-03T05:48:29.643Z,12.80
2019-05-03T05:50:35.861Z,12.20
2019-05-03T05:52:39.779Z,11.80
2019-05-03T05:54:46.441Z,11.70
2019-05-03T05:57:05.419Z,11.50
2019-05-03T05:59:31.174Z,12.00
2019-05-03T06:01:40.740Z,12.40
2019-05-03T06:03:44.908Z,12.00
2019-05-03T06:05:49.261Z,11.90
2019-05-03T06:08:01.736Z,11.70
2019-05-03T06:10:27.811Z,11.70
2019-05-03T06:12:51.759Z,12.00
2019-05-03T06:14:59.568Z,12.20
2019-05-03T06:17:20.604Z,12.30
2019-05-03T06:19:40.411Z,12.60
2019-05-03T06:21:50.814Z,12.40
2019-05-03T06:24:05.016Z,12.20
2019-05-03T06:26:34.640Z,12.20
2019-05-03T06:28:49.955Z,12.10
2019-05-03T06:31:25.259Z,12.30
2019-05-03T06:33:29.634Z,12.20
2019-05-03T06:35:34.571Z,11.90
2019-05-03T06:37:43.021Z,11.60
2019-05-03T06:40:00.958Z,11.40
2019-05-03T06:43:02.953Z,11.30
2019-05-03T06:45:05.860Z,11.30
2019-05-03T06:51:24.871Z,11.20
2019-05-03T06:53:47.547Z,11.50
2019-05-03T06:56:45.009Z,11.40
2019-05-03T06:59:47.109Z,11.30
2019-05-03T07:20:00.109Z,12.20
2019-05-03T07:45:00.739Z,12.50
2019-05-03T07:54:34.799Z,12.10
2019-05-03T08:00:15.503Z,11.90
2019-05-03T08:09:36.544Z,12.90
2019-05-03T08:13:12.311Z,13.00
2019-05-03T08:14:18.307Z,13.30
2019-05-03T08:16:47.957Z,13.40
2019-05-03T08:19:18.137Z,13.30
2019-05-03T08:21:38.025Z,13.00
2019-05-03T08:24:04.578Z,12.90
2019-05-03T08:26:38.038Z,12.90
2019-05-03T08:29:16.144Z,12.80
2019-05-03T08:31:48.350Z,12.70
2019-05-03T08:34:30.733Z,12.50
2019-05-03T08:39:44.589Z,13.20
2019-05-03T08:42:07.193Z,13.90
2019-05-03T08:44:29.351Z,14.00
2019-05-03T08:47:05.313Z,13.90
2019-05-03T08:49:15.744Z,13.50
2019-05-03T08:51:47.209Z,13.30
2019-05-03T08:54:01.552Z,13.20
2019-05-03T08:56:37.386Z,14.00
2019-05-03T08:59:11.330Z,14.30
2019-05-03T09:05:45.310Z,14.50
2019-05-03T09:36:35.254Z,14.00
2019-05-03T09:41:35.102Z,13.50
2019-05-03T09:43:57.817Z,13.80
2019-05-03T09:46:35.474Z,14.30
2019-05-03T09:54:17.334Z,14.70
2019-05-03T09:56:55.028Z,15.10
2019-05-03T09:59:55.697Z,15.40
2019-05-03T10:02:24.610Z,15.80
2019-05-03T10:04:49.049Z,16.20
2019-05-03T10:06:57.982Z,16.30
2019-05-03T10:09:46.893Z,16.20
2019-05-03T10:12:16.162Z,16.00
2019-05-03T10:14:48.011Z,15.90
2019-05-03T10:17:59.093Z,16.10
2019-05-03T10:21:09.390Z,16.50
2019-05-03T10:24:02.561Z,16.70
2019-05-03T10:32:36.597Z,16.60
2019-05-03T10:35:24.608Z,16.50
2019-05-03T10:41:12.394Z,14.40
2019-05-03T10:43:57.863Z,14.40
2019-05-03T10:46:10.486Z,14.50
2019-05-03T10:48:29.497Z,14.60
2019-05-03T10:51:05.768Z,14.70
2019-05-03T10:53:29.524Z,14.90
2019-05-03T10:56:06.185Z,14.80
2019-05-03T11:01:16.530Z,15.40
2019-05-03T11:03:41.625Z,16.00
2019-05-03T11:06:05.493Z,16.30
2019-05-03T11:08:31.780Z,16.20
2019-05-03T11:11:07.281Z,16.20
2019-05-03T11:13:32.290Z,16.20
2019-05-03T11:15:46.171Z,16.20
2019-05-03T11:18:05.605Z,16.10
2019-05-03T11:20:28.146Z,16.50
2019-05-03T11:22:45.653Z,16.30
2019-05-03T11:24:58.677Z,16.40
2019-05-03T11:27:47.701Z,16.60
2019-05-03T11:30:12.945Z,16.00
2019-05-03T11:32:44.621Z,16.00
2019-05-03T11:35:37.178Z,15.80
2019-05-03T11:38:11.397Z,15.80
2019-05-03T11:40:39.266Z,15.70
2019-05-03T11:43:07.269Z,15.70
2019-05-03T11:45:15.915Z,15.70
2019-05-03T11:47:28.015Z,15.80
2019-05-03T11:49:42.646Z,15.60
2019-05-03T11:51:57.929Z,15.50
2019-05-03T11:54:25.105Z,15.60
2019-05-03T11:56:29.131Z,15.60
2019-05-03T11:58:34.609Z,15.50
2019-05-03T12:00:40.289Z,15.40
2019-05-03T12:03:35.529Z,15.50
2019-05-03T12:06:15.643Z,15.60
2019-05-03T12:08:21.306Z,15.80
2019-05-03T12:10:51.743Z,15.90
2019-05-03T12:13:09.208Z,15.90
2019-05-03T12:15:32.168Z,16.10
2019-05-03T12:17:54.373Z,16.00
2019-05-03T12:20:08.096Z,15.70
2019-05-03T12:22:35.933Z,15.60
2019-05-03T12:25:10.392Z,15.40
2019-05-03T12:27:41.822Z,15.40
2019-05-03T12:30:17.997Z,15.60
2019-05-03T12:32:27.804Z,15.60
2019-05-03T12:35:06.326Z,15.80
2019-05-03T12:37:27.734Z,15.60
2019-05-03T12:39:43.150Z,15.60
2019-05-03T12:42:19.204Z,15.80
2019-05-03T12:44:36.906Z,15.80
2019-05-03T12:46:55.702Z,15.50
2019-05-03T12:48:48.951Z,15.70
2019-05-03T12:50:53.522Z,16.00
2019-05-03T12:52:57.851Z,16.30
2019-05-03T12:55:01.839Z,16.40
2019-05-03T12:57:29.036Z,16.60
2019-05-03T13:00:00.947Z,16.60
2019-05-03T13:02:21.584Z,16.80
2019-05-03T13:04:34.432Z,16.90
2019-05-03T13:07:02.745Z,16.90
2019-05-03T13:09:00.731Z,17.00
2019-05-03T13:11:12.920Z,17.10
2019-05-03T13:13:30.815Z,17.00
2019-05-03T13:15:40.697Z,17.20
2019-05-03T13:17:55.335Z,17.50
2019-05-03T13:20:13.256Z,17.40
2019-05-03T13:22:25.326Z,17.40
2019-05-03T13:24:45.189Z,17.00
2019-05-03T13:26:53.701Z,16.70
2019-05-03T13:29:05.671Z,16.40
2019-05-03T13:31:16.173Z,16.50
2019-05-03T13:33:23.470Z,16.40
2019-05-03T13:35:29.187Z,16.10
2019-05-03T13:37:33.110Z,15.90
2019-05-03T13:39:36.913Z,15.60
2019-05-03T13:41:41.759Z,15.40
2019-05-03T13:43:45.597Z,15.30
2019-05-03T13:45:49.756Z,15.00
2019-05-03T13:47:55.235Z,14.90
2019-05-03T13:49:59.352Z,14.80
2019-05-03T13:52:05.099Z,14.70
2019-05-03T13:54:08.663Z,14.70
2019-05-03T13:56:12.729Z,14.60
2019-05-03T13:58:16.546Z,14.40
2019-05-03T14:00:20.481Z,14.30
2019-05-03T14:02:24.380Z,14.30
2019-05-03T14:04:28.162Z,14.30
2019-05-03T14:06:35.978Z,14.70
2019-05-03T14:08:37.751Z,15.10
2019-05-03T14:10:41.838Z,15.40
2019-05-03T14:12:45.912Z,15.80
2019-05-03T14:14:55.840Z,16.40
2019-05-03T14:17:01.325Z,16.80
2019-05-03T14:19:34.788Z,17.20
2019-05-03T14:22:21.226Z,17.30
2019-05-03T14:25:04.991Z,17.20
2019-05-03T14:27:54.935Z,16.90
2019-05-03T14:30:41.603Z,16.70
2019-05-03T14:33:22.340Z,16.70
2019-05-03T14:35:26.153Z,16.50
2019-05-03T14:37:37.941Z,16.50
2019-05-03T14:39:42.029Z,16.30
2019-05-03T14:41:46.901Z,16.50
2019-05-03T14:43:50.865Z,16.60
2019-05-03T14:45:55.182Z,16.40
2019-05-03T14:48:00.613Z,16.50
2019-05-03T14:50:21.283Z,16.40
2019-05-03T14:52:39.342Z,16.10
2019-05-03T14:54:45.121Z,16.20
2019-05-03T14:56:56.404Z,16.10
2019-05-03T14:59:18.199Z,16.10
2019-05-03T15:01:29.058Z,16.20
2019-05-03T15:03:35.500Z,16.30
2019-05-03T15:06:08.901Z,16.30
2019-05-03T15:08:30.643Z,16.10
2019-05-03T15:10:51.963Z,16.00
2019-05-03T15:13:15.876Z,15.90
2019-05-03T15:15:29.417Z,15.80
2019-05-03T15:20:10.404Z,15.90
2019-05-03T15:22:22.231Z,15.90
2019-05-03T15:24:35.693Z,15.70
2019-05-03T15:29:31.075Z,15.30
2019-05-03T15:31:39.444Z,15.20
2019-05-03T15:33:42.092Z,15.10
2019-05-03T15:35:57.735Z,15.20
2019-05-03T15:38:01.896Z,15.30
2019-05-03T15:40:21.326Z,15.30
2019-05-03T15:42:41.623Z,15.30
2019-05-03T15:45:45.078Z,15.20
2019-05-03T15:48:45.810Z,15.00
2019-05-03T16:06:12.682Z,15.20
2019-05-03T16:08:16.641Z,15.30
2019-05-03T16:10:20.758Z,15.30
2019-05-03T16:14:27.960Z,14.90
2019-05-03T16:16:31.988Z,14.70
2019-05-03T16:18:35.827Z,14.70
2019-05-03T16:20:39.948Z,14.60
2019-05-03T16:22:44.997Z,14.50
2019-05-03T16:24:49.239Z,14.30
2019-05-03T16:27:30.246Z,14.10
2019-05-03T16:29:34.492Z,14.00
2019-05-03T16:31:38.327Z,13.70
2019-05-03T16:33:42.195Z,13.40
2019-05-03T16:35:46.042Z,13.30
2019-05-03T16:37:50.163Z,13.30
2019-05-03T16:39:55.027Z,13.30
2019-05-03T16:41:59.784Z,13.30
2019-05-03T16:44:03.730Z,13.40
2019-05-03T16:46:10.682Z,13.40
2019-05-03T16:48:15.458Z,13.40
2019-05-03T16:50:20.692Z,13.30
2019-05-03T16:52:25.656Z,13.30
2019-05-03T16:54:30.135Z,13.20
2019-05-03T16:56:35.290Z,13.30
2019-05-03T16:58:39.211Z,13.30
2019-05-03T17:00:44.693Z,13.30
2019-05-03T17:02:48.612Z,13.30
2019-05-03T17:05:01.560Z,13.40
2019-05-03T17:07:24.691Z,13.50
2019-05-03T17:09:47.623Z,13.40
2019-05-03T17:12:09.640Z,13.20
2019-05-03T17:14:15.433Z,13.00
2019-05-03T17:16:18.979Z,13.00
2019-05-03T17:18:24.649Z,13.00
2019-05-03T17:20:28.569Z,13.20
2019-05-03T17:22:34.347Z,13.20
2019-05-03T17:24:37.920Z,13.20
2019-05-03T17:26:41.702Z,13.10
2019-05-03T17:28:45.556Z,13.00
2019-05-03T17:30:49.451Z,12.90
2019-05-03T17:32:55.011Z,12.80
2019-05-03T17:34:59.893Z,12.80
2019-05-03T17:37:05.018Z,12.70
2019-05-03T17:39:12.355Z,12.70
2019-05-03T17:43:42.173Z,12.60
2019-05-03T17:45:48.792Z,12.50
2019-05-03T17:49:55.900Z,12.30
2019-05-03T17:52:21.833Z,12.10
2019-05-03T17:54:54.276Z,12.00
2019-05-03T17:57:07.995Z,11.80
2019-05-03T17:59:24.461Z,11.70
2019-05-03T18:01:55.277Z,11.50
2019-05-03T18:04:06.578Z,11.40
2019-05-03T18:06:15.334Z,11.30
2019-05-03T18:08:40.563Z,11.30
2019-05-03T18:14:58.596Z,11.20
2019-05-03T18:17:02.549Z,11.10
2019-05-03T18:19:06.511Z,11.00
2019-05-03T18:21:15.041Z,10.90
2019-05-03T18:23:18.619Z,10.90
2019-05-03T18:25:22.453Z,10.90
2019-05-03T18:27:26.343Z,10.90
2019-05-03T18:29:30.130Z,10.90
2019-05-03T18:31:33.980Z,10.90
2019-05-03T18:33:40.600Z,10.80
2019-05-03T18:35:44.402Z,10.80
2019-05-03T18:37:59.526Z,10.80
2019-05-03T19:10:35.502Z,10.20
2019-05-03T19:12:46.661Z,10.20
2019-05-03T19:14:52.193Z,10.10
2019-05-03T19:17:12.871Z,10.00
2019-05-03T19:19:24.659Z,10.00
2019-05-03T19:21:29.821Z,10.00
2019-05-03T19:23:35.479Z,9.90
2019-05-03T19:25:46.953Z,9.80
2019-05-03T19:27:47.384Z,9.80
2019-05-03T19:29:58.389Z,9.70
2019-05-03T19:32:09.456Z,9.70
2019-05-03T19:34:15.318Z,9.60
2019-05-03T19:36:19.702Z,9.50
2019-05-03T19:38:28.845Z,9.40
2019-05-03T19:40:40.013Z,9.40
2019-05-03T19:42:44.733Z,9.40
2019-05-03T19:44:50.619Z,9.50
2019-05-03T19:46:58.036Z,9.40
2019-05-03T19:49:09.347Z,9.40
2019-05-03T19:51:18.997Z,9.30
2019-05-03T19:53:51.007Z,9.20
2019-05-03T19:55:58.169Z,9.20
2019-05-03T19:58:05.547Z,9.00
2019-05-03T20:00:11.269Z,8.90
2019-05-03T20:02:34.992Z,8.90
2019-05-03T20:05:16.238Z,8.90
2019-05-03T20:07:40.599Z,8.90
2019-05-03T20:09:48.872Z,8.80
2019-05-03T20:11:55.208Z,8.80
2019-05-03T20:14:01.757Z,8.80
2019-05-03T20:16:05.920Z,8.90
2019-05-03T20:18:10.407Z,8.80
2019-05-03T20:20:15.450Z,8.80
2019-05-03T20:22:19.697Z,8.80
2019-05-03T20:24:25.317Z,8.80
2019-05-03T20:26:34.623Z,8.80
2019-05-03T20:28:38.248Z,8.80
2019-05-03T20:30:45.393Z,8.80
2019-05-03T20:32:50.670Z,8.70
2019-05-03T20:35:10.891Z,8.70
2019-05-03T20:37:06.134Z,8.70
2019-05-03T20:39:10.438Z,8.70
2019-05-03T20:41:17.440Z,8.70
2019-05-03T20:43:49.671Z,8.50
2019-05-03T20:46:15.107Z,8.50
2019-05-03T20:48:25.990Z,8.50
2019-05-03T20:50:31.109Z,8.40
2019-05-03T20:52:38.751Z,8.40
2019-05-03T20:54:44.785Z,8.40
2019-05-03T20:56:52.029Z,8.40
2019-05-03T20:59:05.336Z,8.40
2019-05-03T21:01:11.287Z,8.50
2019-05-03T21:03:18.631Z,8.50
2019-05-03T21:05:29.633Z,8.50
2019-05-03T21:07:45.485Z,8.40
2019-05-03T21:10:02.745Z,8.40
2019-05-03T21:12:15.080Z,8.30
2019-05-03T21:14:26.565Z,8.20
2019-05-03T21:17:07.057Z,8.20
2019-05-03T21:19:36.094Z,8.10
2019-05-03T21:21:44.514Z,7.80
2019-05-03T21:23:52.520Z,7.60
2019-05-03T21:26:12.879Z,7.50
2019-05-03T21:28:12.164Z,7.50
2019-05-03T21:30:16.016Z,7.40
2019-05-03T21:32:19.983Z,7.40
2019-05-03T21:34:25.159Z,7.40
2019-05-03T21:36:29.089Z,7.40
2019-05-03T21:38:35.170Z,7.40
2019-05-03T21:40:38.439Z,7.50
2019-05-03T21:42:42.256Z,7.40
2019-05-03T21:44:46.027Z,7.40
2019-05-03T21:46:50.338Z,7.40
2019-05-03T21:48:58.291Z,7.30
2019-05-03T21:51:05.093Z,7.30
2019-05-03T21:53:29.303Z,7.30
2019-05-03T21:55:44.697Z,7.20
2019-05-03T21:57:57.631Z,7.20
2019-05-03T22:00:36.383Z,7.20
2019-05-03T22:02:58.129Z,7.20
2019-05-03T22:05:09.020Z,7.10
2019-05-03T22:07:25.111Z,7.10
2019-05-03T22:09:32.430Z,7.10
2019-05-03T22:11:39.793Z,7.10
2019-05-03T22:13:48.106Z,7.10
2019-05-03T22:15:59.721Z,7.10
2019-05-03T22:20:41.271Z,7.00
2019-05-03T22:22:55.307Z,6.80
2019-05-03T22:25:00.101Z,6.80
2019-05-03T22:27:15.292Z,6.90
2019-05-03T22:29:25.469Z,6.90
2019-05-03T22:31:42.175Z,6.90
2019-05-03T22:33:52.649Z,6.90
2019-05-03T22:36:08.627Z,6.90
2019-05-03T22:38:18.129Z,6.90
2019-05-03T22:40:29.488Z,6.90
2019-05-03T22:42:47.652Z,6.90
2019-05-03T22:45:04.695Z,6.90
2019-05-03T22:47:14.725Z,7.00
2019-05-03T22:49:20.807Z,7.00
2019-05-03T22:51:32.149Z,7.00
2019-05-03T22:54:01.569Z,7.00
2019-05-03T22:56:16.005Z,7.00
2019-05-03T22:58:24.841Z,7.00
2019-05-03T23:00:38.572Z,7.00
2019-05-03T23:02:55.292Z,7.10
2019-05-03T23:05:10.695Z,7.00
2019-05-03T23:07:19.849Z,7.00
2019-05-03T23:09:30.414Z,7.00
2019-05-03T23:11:40.275Z,6.90
2019-05-03T23:14:01.693Z,7.00
2019-05-03T23:16:17.599Z,6.90
2019-05-03T23:18:24.710Z,6.90
2019-05-03T23:20:47.263Z,6.80
2019-05-03T23:23:00.426Z,6.80
2019-05-03T23:25:17.109Z,6.80
2019-05-03T23:27:32.619Z,6.70
2019-05-03T23:29:45.440Z,6.70
2019-05-03T23:31:50.167Z,6.70
2019-05-03T23:34:11.049Z,6.80
2019-05-03T23:36:36.468Z,6.70
2019-05-03T23:38:45.210Z,6.70
2019-05-03T23:40:55.344Z,6.60
2019-05-03T23:43:01.280Z,6.60
2019-05-03T23:45:15.022Z,6.60
2019-05-03T23:47:41.234Z,6.60
2019-05-03T23:49:55.382Z,6.60
2019-05-03T23:52:04.495Z,6.60
2019-05-03T23:54:18.651Z,6.60
2019-05-03T23:56:26.226Z,6.60
2019-05-03T23:58:49.104Z,6.60
